createdAt,value
2018-12-29T00:00:12.577Z,17.92
2018-12-29T00:01:12.841Z,17.87
2018-12-29T00:02:12.596Z,17.94
2018-12-29T00:03:12.798Z,17.87
2018-12-29T00:04:12.545Z,17.92
2018-12-29T00:05:12.527Z,17.90
2018-12-29T00:06:12.547Z,17.90
2018-12-29T00:07:12.758Z,17.86
2018-12-29T00:08:12.494Z,17.82
2018-12-29T00:09:12.480Z,17.86
2018-12-29T00:10:12.736Z,17.86
2018-12-29T00:11:12.481Z,17.92
2018-12-29T00:12:12.702Z,17.94
2018-12-29T00:13:12.693Z,17.85
2018-12-29T00:14:12.424Z,17.85
2018-12-29T00:15:12.407Z,17.86
2018-12-29T00:16:12.427Z,17.94
2018-12-29T00:17:12.423Z,17.80
2018-12-29T00:18:12.406Z,17.95
2018-12-29T00:19:12.402Z,17.89
2018-12-29T00:20:12.468Z,17.90
2018-12-29T00:21:12.540Z,17.94
2018-12-29T00:22:12.375Z,17.83
2018-12-29T00:23:12.368Z,17.89
2018-12-29T00:24:12.347Z,17.86
2018-12-29T00:25:12.338Z,17.85
2018-12-29T00:26:12.396Z,17.82
2018-12-29T00:27:12.376Z,17.92
2018-12-29T00:28:12.296Z,17.94
2018-12-29T00:29:12.294Z,17.90
2018-12-29T00:30:12.335Z,17.90
2018-12-29T00:31:12.275Z,17.94
2018-12-29T00:32:12.225Z,17.94
2018-12-29T00:33:12.227Z,17.87
2018-12-29T00:34:12.471Z,17.90
2018-12-29T00:35:12.204Z,17.87
2018-12-29T00:36:12.205Z,17.87
2018-12-29T00:37:12.171Z,17.86
2018-12-29T00:38:12.163Z,17.94
2018-12-29T00:39:12.406Z,17.90
2018-12-29T00:40:12.393Z,17.94
2018-12-29T00:41:12.219Z,17.92
2018-12-29T00:42:12.121Z,17.95
2018-12-29T00:43:12.103Z,17.97
2018-12-29T00:44:12.132Z,17.92
2018-12-29T00:45:12.090Z,17.90
2018-12-29T00:46:12.156Z,17.95
2018-12-29T00:47:12.059Z,17.94
2018-12-29T00:48:12.099Z,17.92
2018-12-29T00:49:12.060Z,17.90
2018-12-29T00:50:12.286Z,17.90
2018-12-29T00:51:12.062Z,17.92
2018-12-29T00:52:12.276Z,17.90
2018-12-29T00:53:11.999Z,17.94
2018-12-29T00:54:11.996Z,17.95
2018-12-29T00:55:11.979Z,17.90
2018-12-29T00:56:12.000Z,17.90
2018-12-29T00:57:12.223Z,17.90
2018-12-29T00:58:12.206Z,17.92
2018-12-29T00:59:11.935Z,17.87
2018-12-29T01:00:11.922Z,17.90
2018-12-29T01:01:11.945Z,17.90
2018-12-29T01:02:12.158Z,17.94
2018-12-29T01:03:11.947Z,17.94
2018-12-29T01:04:11.878Z,17.97
2018-12-29T01:05:11.864Z,17.90
2018-12-29T01:06:11.932Z,17.95
2018-12-29T01:07:12.096Z,17.97
2018-12-29T01:08:11.844Z,17.87
2018-12-29T01:09:11.833Z,17.89
2018-12-29T01:10:11.813Z,17.90
2018-12-29T01:11:11.806Z,17.95
2018-12-29T01:12:11.787Z,17.97
2018-12-29T01:13:11.783Z,17.92
2018-12-29T01:14:12.021Z,17.90
2018-12-29T01:15:11.765Z,17.90
2018-12-29T01:16:11.742Z,17.97
2018-12-29T01:17:11.767Z,17.92
2018-12-29T01:18:11.757Z,17.89
2018-12-29T01:19:11.747Z,17.97
2018-12-29T01:20:11.730Z,17.97
2018-12-29T01:21:11.734Z,17.94
2018-12-29T01:22:12.003Z,17.85
2018-12-29T01:23:11.699Z,17.85
2018-12-29T01:24:11.699Z,17.92
2018-12-29T01:25:11.673Z,17.87
2018-12-29T01:26:11.675Z,17.95
2018-12-29T01:27:11.717Z,18.04
2018-12-29T01:28:11.883Z,17.90
2018-12-29T01:29:11.610Z,17.90
2018-12-29T01:30:11.590Z,17.98
2018-12-29T01:31:11.584Z,17.98
2018-12-29T01:32:11.594Z,18.04
2018-12-29T01:33:11.560Z,17.95
2018-12-29T01:34:11.547Z,17.97
2018-12-29T01:35:11.558Z,17.92
2018-12-29T01:36:11.787Z,17.97
2018-12-29T01:37:11.554Z,17.85
2018-12-29T01:38:11.518Z,18.00
2018-12-29T01:39:11.491Z,17.95
2018-12-29T01:40:11.491Z,18.00
2018-12-29T01:41:11.471Z,17.97
2018-12-29T01:42:11.493Z,18.00
2018-12-29T01:43:11.450Z,17.90
2018-12-29T01:44:11.452Z,17.95
2018-12-29T01:45:17.351Z,17.95
2018-12-29T01:46:11.415Z,17.98
2018-12-29T01:47:11.433Z,17.92
2018-12-29T01:48:11.410Z,17.94
2018-12-29T01:49:11.389Z,17.97
2018-12-29T01:50:11.380Z,17.94
2018-12-29T01:51:11.619Z,17.94
2018-12-29T01:52:11.393Z,17.97
2018-12-29T01:53:11.339Z,17.95
2018-12-29T01:54:11.326Z,17.97
2018-12-29T01:55:11.343Z,17.92
2018-12-29T01:56:11.316Z,17.85
2018-12-29T01:57:11.367Z,17.90
2018-12-29T01:58:11.310Z,17.92
2018-12-29T01:59:11.288Z,17.92
2018-12-29T02:00:11.264Z,17.94
2018-12-29T02:01:11.257Z,17.89
2018-12-29T02:02:11.357Z,17.94
2018-12-29T02:03:11.342Z,17.89
2018-12-29T02:04:11.227Z,17.95
2018-12-29T02:05:11.265Z,17.90
2018-12-29T02:06:11.202Z,17.89
2018-12-29T02:07:11.233Z,17.89
2018-12-29T02:08:11.179Z,17.90
2018-12-29T02:09:11.182Z,17.92
2018-12-29T02:10:11.170Z,17.95
2018-12-29T02:11:11.178Z,17.86
2018-12-29T02:12:11.177Z,17.87
2018-12-29T02:13:11.158Z,17.98
2018-12-29T02:14:11.117Z,17.98
2018-12-29T02:15:11.405Z,17.97
2018-12-29T02:16:11.355Z,17.92
2018-12-29T02:17:11.184Z,17.86
2018-12-29T02:18:11.103Z,17.87
2018-12-29T02:19:11.363Z,17.90
2018-12-29T02:20:11.089Z,17.94
2018-12-29T02:21:11.092Z,17.92
2018-12-29T02:22:11.119Z,17.89
2018-12-29T02:23:11.050Z,17.94
2018-12-29T02:24:11.040Z,17.87
2018-12-29T02:25:11.044Z,17.86
2018-12-29T02:26:11.026Z,17.89
2018-12-29T02:27:11.066Z,17.85
2018-12-29T02:28:10.972Z,17.94
2018-12-29T02:29:10.952Z,17.92
2018-12-29T02:30:10.944Z,17.85
2018-12-29T02:31:11.178Z,17.97
2018-12-29T02:32:10.949Z,17.87
2018-12-29T02:33:10.913Z,17.89
2018-12-29T02:34:10.904Z,17.90
2018-12-29T02:35:10.886Z,17.94
2018-12-29T02:36:11.131Z,17.94
2018-12-29T02:37:10.872Z,17.89
2018-12-29T02:38:10.893Z,17.90
2018-12-29T02:39:10.852Z,17.87
2018-12-29T02:40:10.833Z,17.89
2018-12-29T02:41:11.079Z,17.89
2018-12-29T02:42:10.806Z,17.89
2018-12-29T02:43:10.802Z,17.87
2018-12-29T02:44:10.788Z,17.87
2018-12-29T02:45:11.043Z,17.95
2018-12-29T02:46:11.115Z,17.90
2018-12-29T02:47:10.760Z,17.92
2018-12-29T02:48:10.775Z,17.90
2018-12-29T02:49:10.729Z,17.94
2018-12-29T02:50:10.717Z,17.89
2018-12-29T02:51:10.717Z,17.92
2018-12-29T02:52:10.715Z,17.90
2018-12-29T02:53:10.739Z,17.94
2018-12-29T02:54:10.941Z,17.94
2018-12-29T02:55:10.664Z,17.90
2018-12-29T02:56:10.657Z,17.95
2018-12-29T02:57:10.643Z,17.90
2018-12-29T02:58:10.659Z,17.94
2018-12-29T02:59:10.625Z,17.92
2018-12-29T03:00:10.612Z,17.89
2018-12-29T03:01:10.611Z,17.90
2018-12-29T03:02:10.601Z,17.95
2018-12-29T03:03:10.617Z,17.97
2018-12-29T03:04:10.566Z,18.00
2018-12-29T03:05:10.831Z,17.89
2018-12-29T03:06:10.587Z,17.87
2018-12-29T03:07:10.546Z,17.89
2018-12-29T03:08:10.594Z,17.82
2018-12-29T03:09:10.512Z,17.90
2018-12-29T03:10:10.519Z,17.94
2018-12-29T03:11:10.499Z,17.90
2018-12-29T03:12:10.482Z,17.89
2018-12-29T03:13:10.496Z,17.94
2018-12-29T03:14:10.469Z,17.90
2018-12-29T03:15:10.444Z,17.87
2018-12-29T03:16:10.439Z,17.95
2018-12-29T03:17:10.977Z,17.98
2018-12-29T03:18:10.751Z,17.92
2018-12-29T03:19:10.482Z,17.92
2018-12-29T03:20:10.427Z,17.89
2018-12-29T03:21:10.417Z,17.97
2018-12-29T03:22:10.405Z,17.90
2018-12-29T03:23:10.460Z,17.87
2018-12-29T03:24:10.444Z,17.92
2018-12-29T03:25:10.372Z,17.98
2018-12-29T03:26:10.368Z,18.00
2018-12-29T03:27:10.356Z,17.94
2018-12-29T03:28:10.343Z,17.89
2018-12-29T03:29:10.299Z,17.92
2018-12-29T03:30:10.318Z,17.95
2018-12-29T03:31:10.648Z,18.00
2018-12-29T03:32:10.274Z,17.98
2018-12-29T03:33:10.593Z,17.94
2018-12-29T03:34:10.242Z,18.00
2018-12-29T03:35:10.225Z,17.97
2018-12-29T03:36:10.218Z,18.03
2018-12-29T03:37:10.206Z,17.94
2018-12-29T03:38:10.222Z,17.94
2018-12-29T03:39:10.232Z,17.97
2018-12-29T03:40:10.315Z,18.07
2018-12-29T03:41:10.208Z,17.98
2018-12-29T03:42:10.160Z,18.00
2018-12-29T03:43:10.171Z,17.97
2018-12-29T03:44:10.141Z,17.97
2018-12-29T03:45:10.128Z,17.98
2018-12-29T03:46:10.110Z,17.97
2018-12-29T03:47:10.101Z,18.01
2018-12-29T03:48:10.091Z,17.97
2018-12-29T03:49:10.098Z,17.97
2018-12-29T03:50:10.073Z,18.00
2018-12-29T03:51:10.308Z,18.05
2018-12-29T03:52:10.062Z,17.97
2018-12-29T03:53:10.037Z,18.08
2018-12-29T03:54:10.037Z,17.95
2018-12-29T03:55:10.272Z,17.97
2018-12-29T03:56:10.008Z,18.01
2018-12-29T03:57:09.997Z,18.05
2018-12-29T03:58:09.994Z,18.04
2018-12-29T03:59:10.220Z,18.07
2018-12-29T04:00:10.127Z,18.00
2018-12-29T04:01:09.955Z,18.04
2018-12-29T04:02:11.978Z,18.10
2018-12-29T04:03:09.946Z,17.98
2018-12-29T04:04:10.179Z,18.05
2018-12-29T04:05:10.032Z,18.04
2018-12-29T04:06:09.942Z,18.01
2018-12-29T04:07:09.976Z,17.97
2018-12-29T04:08:10.132Z,18.01
2018-12-29T04:09:09.907Z,17.92
2018-12-29T04:10:10.161Z,17.92
2018-12-29T04:11:10.080Z,18.01
2018-12-29T04:12:09.945Z,18.01
2018-12-29T04:13:09.863Z,18.01
2018-12-29T04:14:09.935Z,18.01
2018-12-29T04:15:09.853Z,17.97
2018-12-29T04:16:09.861Z,18.03
2018-12-29T04:17:09.805Z,18.03
2018-12-29T04:18:09.804Z,18.01
2018-12-29T04:19:09.796Z,18.05
2018-12-29T04:20:10.089Z,17.97
2018-12-29T04:21:09.849Z,17.98
2018-12-29T04:22:09.756Z,17.94
2018-12-29T04:23:09.790Z,18.03
2018-12-29T04:24:09.772Z,18.08
2018-12-29T04:25:09.765Z,18.08
2018-12-29T04:26:09.773Z,18.04
2018-12-29T04:27:09.956Z,18.03
2018-12-29T04:28:09.664Z,18.07
2018-12-29T04:29:09.676Z,18.01
2018-12-29T04:30:09.682Z,18.04
2018-12-29T04:31:09.638Z,18.07
2018-12-29T04:32:09.616Z,17.97
2018-12-29T04:33:09.865Z,18.04
2018-12-29T04:34:09.624Z,17.97
2018-12-29T04:35:09.633Z,18.07
2018-12-29T04:36:09.631Z,18.00
2018-12-29T04:37:09.815Z,18.08
2018-12-29T04:38:09.592Z,18.07
2018-12-29T04:39:09.570Z,18.03
2018-12-29T04:40:09.824Z,18.04
2018-12-29T04:41:09.767Z,18.04
2018-12-29T04:42:09.551Z,18.13
2018-12-29T04:43:09.492Z,18.01
2018-12-29T04:44:09.803Z,18.00
2018-12-29T04:45:09.478Z,18.04
2018-12-29T04:46:09.566Z,18.05
2018-12-29T04:47:09.445Z,18.04
2018-12-29T04:48:09.437Z,18.04
2018-12-29T04:49:09.457Z,18.04
2018-12-29T04:50:09.564Z,18.05
2018-12-29T04:51:09.654Z,18.07
2018-12-29T04:52:10.276Z,18.05
2018-12-29T04:53:09.399Z,18.07
2018-12-29T04:54:09.435Z,18.01
2018-12-29T04:55:09.405Z,17.98
2018-12-29T04:56:09.352Z,18.07
2018-12-29T04:57:09.652Z,18.05
2018-12-29T04:58:09.388Z,18.00
2018-12-29T04:59:09.390Z,18.07
2018-12-29T05:00:09.566Z,17.98
2018-12-29T05:01:09.593Z,17.94
2018-12-29T05:02:09.388Z,18.04
2018-12-29T05:03:09.295Z,18.05
2018-12-29T05:04:09.292Z,17.97
2018-12-29T05:05:09.259Z,17.97
2018-12-29T05:06:09.247Z,18.10
2018-12-29T05:07:09.475Z,18.07
2018-12-29T05:08:09.229Z,18.04
2018-12-29T05:09:09.256Z,18.04
2018-12-29T05:10:09.497Z,18.01
2018-12-29T05:11:09.188Z,17.97
2018-12-29T05:12:09.319Z,18.07
2018-12-29T05:13:09.219Z,18.00
2018-12-29T05:14:09.187Z,18.04
2018-12-29T05:15:09.191Z,18.04
2018-12-29T05:16:12.737Z,17.97
2018-12-29T05:17:09.163Z,18.04
2018-12-29T05:18:09.147Z,18.05
2018-12-29T05:19:09.438Z,17.92
2018-12-29T05:20:09.133Z,17.95
2018-12-29T05:21:09.160Z,18.08
2018-12-29T05:22:09.387Z,17.94
2018-12-29T05:23:09.170Z,18.03
2018-12-29T05:24:09.145Z,18.05
2018-12-29T05:25:09.074Z,17.97
2018-12-29T05:26:09.067Z,18.04
2018-12-29T05:27:09.083Z,18.03
2018-12-29T05:28:09.058Z,18.04
2018-12-29T05:29:09.064Z,18.01
2018-12-29T05:30:09.233Z,18.03
2018-12-29T05:31:08.974Z,18.04
2018-12-29T05:32:09.001Z,18.11
2018-12-29T05:33:08.955Z,18.03
2018-12-29T05:34:09.011Z,18.08
2018-12-29T05:35:08.932Z,18.10
2018-12-29T05:36:08.925Z,18.01
2018-12-29T05:37:09.169Z,18.04
2018-12-29T05:38:09.152Z,17.98
2018-12-29T05:39:08.929Z,17.98
2018-12-29T05:40:12.320Z,18.04
2018-12-29T05:41:08.878Z,18.05
2018-12-29T05:42:08.871Z,17.97
2018-12-29T05:43:08.885Z,18.05
2018-12-29T05:44:09.381Z,18.07
2018-12-29T05:45:10.457Z,18.08
2018-12-29T05:46:08.863Z,18.04
2018-12-29T05:47:08.834Z,18.00
2018-12-29T05:48:08.791Z,17.98
2018-12-29T05:49:08.811Z,18.05
2018-12-29T05:50:08.790Z,18.01
2018-12-29T05:51:08.753Z,18.01
2018-12-29T05:52:08.740Z,17.98
2018-12-29T05:53:08.763Z,17.89
2018-12-29T05:54:08.715Z,18.04
2018-12-29T05:55:08.986Z,18.00
2018-12-29T05:56:08.763Z,18.04
2018-12-29T05:57:08.694Z,17.98
2018-12-29T05:58:08.685Z,18.10
2018-12-29T05:59:08.713Z,18.05
2018-12-29T06:00:08.680Z,18.08
2018-12-29T06:01:08.643Z,18.00
2018-12-29T06:02:08.644Z,18.05
2018-12-29T06:03:08.664Z,18.03
2018-12-29T06:04:08.773Z,18.03
2018-12-29T06:05:08.918Z,18.01
2018-12-29T06:06:08.589Z,18.04
2018-12-29T06:07:08.616Z,18.03
2018-12-29T06:08:09.513Z,18.03
2018-12-29T06:09:08.566Z,18.00
2018-12-29T06:10:08.629Z,17.97
2018-12-29T06:11:08.582Z,18.05
2018-12-29T06:12:08.527Z,18.03
2018-12-29T06:13:08.550Z,17.94
2018-12-29T06:14:08.506Z,18.01
2018-12-29T06:15:08.573Z,18.04
2018-12-29T06:16:08.483Z,18.03
2018-12-29T06:17:08.501Z,18.05
2018-12-29T06:18:08.512Z,18.04
2018-12-29T06:19:08.520Z,18.07
2018-12-29T06:20:08.570Z,18.01
2018-12-29T06:21:08.484Z,18.01
2018-12-29T06:22:08.716Z,18.05
2018-12-29T06:23:08.435Z,18.03
2018-12-29T06:24:08.422Z,18.01
2018-12-29T06:25:10.674Z,18.01
2018-12-29T06:26:08.677Z,17.94
2018-12-29T06:27:08.451Z,17.97
2018-12-29T06:28:08.375Z,17.97
2018-12-29T06:29:08.632Z,18.05
2018-12-29T06:30:08.431Z,18.10
2018-12-29T06:31:08.330Z,18.00
2018-12-29T06:32:08.359Z,18.03
2018-12-29T06:33:08.550Z,18.03
2018-12-29T06:34:08.286Z,18.04
2018-12-29T06:35:08.315Z,17.98
2018-12-29T06:36:08.265Z,17.97
2018-12-29T06:37:08.631Z,18.01
2018-12-29T06:38:08.292Z,18.01
2018-12-29T06:39:08.266Z,18.00
2018-12-29T06:40:08.255Z,18.01
2018-12-29T06:41:08.209Z,18.01
2018-12-29T06:42:08.204Z,17.97
2018-12-29T06:43:08.200Z,18.00
2018-12-29T06:44:08.174Z,18.05
2018-12-29T06:45:08.208Z,17.92
2018-12-29T06:46:08.159Z,18.07
2018-12-29T06:47:08.138Z,18.00
2018-12-29T06:48:08.416Z,18.08
2018-12-29T06:49:08.126Z,18.05
2018-12-29T06:50:08.136Z,18.05
2018-12-29T06:51:08.100Z,18.03
2018-12-29T06:52:08.087Z,17.97
2018-12-29T06:53:08.340Z,18.04
2018-12-29T06:54:08.077Z,18.07
2018-12-29T06:55:08.123Z,18.04
2018-12-29T06:56:08.053Z,18.03
2018-12-29T06:57:08.038Z,18.07
2018-12-29T06:58:08.022Z,18.01
2018-12-29T06:59:08.043Z,17.94
2018-12-29T07:00:08.038Z,18.08
2018-12-29T07:01:08.024Z,18.05
2018-12-29T07:02:08.241Z,18.01
2018-12-29T07:03:08.030Z,18.00
2018-12-29T07:04:08.000Z,18.04
2018-12-29T07:05:08.253Z,18.03
2018-12-29T07:06:07.989Z,18.01
2018-12-29T07:07:08.203Z,17.98
2018-12-29T07:08:07.986Z,18.01
2018-12-29T07:09:07.999Z,17.94
2018-12-29T07:10:07.933Z,18.00
2018-12-29T07:11:08.967Z,18.04
2018-12-29T07:12:07.873Z,18.05
2018-12-29T07:13:08.154Z,18.01
2018-12-29T07:14:07.936Z,17.97
2018-12-29T07:15:07.902Z,18.05
2018-12-29T07:16:07.875Z,17.98
2018-12-29T07:17:07.853Z,17.98
2018-12-29T07:18:07.882Z,18.00
2018-12-29T07:19:07.832Z,17.98
2018-12-29T07:20:07.819Z,17.94
2018-12-29T07:21:07.868Z,18.01
2018-12-29T07:22:07.802Z,17.98
2018-12-29T07:23:07.787Z,17.92
2018-12-29T07:24:07.782Z,17.94
2018-12-29T07:25:07.773Z,18.00
2018-12-29T07:26:07.763Z,17.92
2018-12-29T07:27:07.742Z,17.95
2018-12-29T07:28:07.729Z,18.04
2018-12-29T07:29:07.689Z,18.03
2018-12-29T07:30:07.673Z,17.92
2018-12-29T07:31:07.690Z,17.94
2018-12-29T07:32:07.914Z,17.97
2018-12-29T07:33:07.645Z,17.92
2018-12-29T07:34:07.671Z,17.95
2018-12-29T07:35:07.627Z,17.94
2018-12-29T07:36:07.668Z,17.92
2018-12-29T07:37:07.604Z,17.94
2018-12-29T07:38:07.850Z,18.00
2018-12-29T07:39:08.408Z,17.94
2018-12-29T07:40:07.688Z,17.95
2018-12-29T07:41:07.583Z,17.95
2018-12-29T07:42:07.551Z,17.95
2018-12-29T07:43:07.614Z,18.00
2018-12-29T07:44:07.524Z,17.94
2018-12-29T07:45:07.511Z,17.87
2018-12-29T07:46:07.553Z,17.89
2018-12-29T07:47:07.493Z,17.95
2018-12-29T07:48:07.485Z,17.92
2018-12-29T07:49:07.468Z,17.95
2018-12-29T07:50:07.457Z,17.83
2018-12-29T07:51:07.472Z,17.92
2018-12-29T07:52:07.436Z,17.94
2018-12-29T07:53:07.520Z,17.94
2018-12-29T07:54:07.413Z,17.89
2018-12-29T07:55:07.443Z,17.94
2018-12-29T07:56:07.722Z,17.94
2018-12-29T07:57:07.383Z,17.97
2018-12-29T07:58:07.388Z,17.95
2018-12-29T07:59:07.413Z,17.97
2018-12-29T08:00:07.351Z,17.85
2018-12-29T08:01:07.633Z,17.87
2018-12-29T08:02:07.360Z,17.90
2018-12-29T08:03:07.314Z,17.94
2018-12-29T08:04:07.307Z,17.97
2018-12-29T08:05:07.293Z,17.90
2018-12-29T08:06:07.315Z,17.90
2018-12-29T08:07:07.295Z,17.94
2018-12-29T08:08:07.276Z,17.95
2018-12-29T08:09:07.247Z,17.90
2018-12-29T08:10:07.250Z,17.87
2018-12-29T08:11:07.256Z,17.95
2018-12-29T08:12:07.218Z,17.97
2018-12-29T08:13:07.207Z,17.95
2018-12-29T08:14:11.964Z,17.97
2018-12-29T08:15:07.445Z,17.90
2018-12-29T08:16:07.205Z,17.92
2018-12-29T08:17:07.196Z,17.94
2018-12-29T08:18:07.695Z,17.94
2018-12-29T08:19:07.180Z,17.87
2018-12-29T08:20:07.160Z,17.95
2018-12-29T08:21:07.467Z,17.98
2018-12-29T08:22:07.156Z,17.97
2018-12-29T08:23:07.142Z,17.94
2018-12-29T08:24:07.369Z,17.90
2018-12-29T08:25:07.098Z,17.97
2018-12-29T08:26:07.180Z,17.92
2018-12-29T08:27:07.353Z,17.97
2018-12-29T08:28:07.047Z,17.92
2018-12-29T08:29:07.284Z,17.85
2018-12-29T08:30:07.019Z,17.95
2018-12-29T08:31:07.301Z,17.97
2018-12-29T08:32:07.008Z,17.85
2018-12-29T08:33:06.992Z,17.92
2018-12-29T08:34:07.133Z,17.92
2018-12-29T08:35:07.079Z,17.92
2018-12-29T08:36:07.018Z,17.89
2018-12-29T08:37:06.965Z,17.94
2018-12-29T08:38:06.930Z,17.94
2018-12-29T08:39:07.449Z,17.90
2018-12-29T08:40:06.917Z,17.90
2018-12-29T08:41:06.923Z,17.92
2018-12-29T08:42:07.158Z,17.87
2018-12-29T08:43:06.911Z,17.87
2018-12-29T08:44:06.872Z,17.90
2018-12-29T08:45:06.858Z,17.95
2018-12-29T08:46:06.859Z,17.90
2018-12-29T08:47:06.870Z,17.87
2018-12-29T08:48:06.832Z,17.92
2018-12-29T08:49:06.824Z,17.95
2018-12-29T08:50:12.985Z,17.95
2018-12-29T08:51:06.792Z,17.95
2018-12-29T08:52:06.814Z,17.87
2018-12-29T08:53:06.778Z,17.97
2018-12-29T08:54:06.753Z,17.90
2018-12-29T08:55:06.752Z,17.94
2018-12-29T08:56:07.043Z,17.98
2018-12-29T08:57:06.754Z,17.92
2018-12-29T08:58:06.737Z,17.89
2018-12-29T08:59:06.962Z,18.00
2018-12-29T09:00:06.953Z,17.92
2018-12-29T09:01:06.682Z,18.00
2018-12-29T09:02:06.782Z,17.97
2018-12-29T09:03:07.160Z,17.95
2018-12-29T09:04:06.662Z,18.01
2018-12-29T09:05:06.638Z,17.97
2018-12-29T09:06:06.627Z,18.03
2018-12-29T09:07:06.896Z,18.01
2018-12-29T09:08:06.608Z,18.00
2018-12-29T09:09:06.596Z,17.95
2018-12-29T09:10:06.623Z,17.95
2018-12-29T09:11:06.894Z,17.98
2018-12-29T09:12:06.599Z,17.94
2018-12-29T09:13:06.556Z,17.94
2018-12-29T09:14:06.545Z,18.00
2018-12-29T09:15:06.608Z,17.92
2018-12-29T09:16:06.817Z,18.00
2018-12-29T09:17:12.101Z,17.97
2018-12-29T09:18:06.538Z,17.97
2018-12-29T09:19:06.638Z,17.97
2018-12-29T09:20:06.513Z,17.92
2018-12-29T09:21:06.497Z,17.89
2018-12-29T09:22:06.557Z,17.92
2018-12-29T09:23:06.495Z,17.98
2018-12-29T09:24:06.461Z,17.94
2018-12-29T09:25:06.465Z,17.98
2018-12-29T09:26:06.447Z,17.95
2018-12-29T09:27:06.820Z,17.97
2018-12-29T09:28:06.640Z,17.97
2018-12-29T09:29:06.374Z,18.00
2018-12-29T09:30:06.377Z,18.08
2018-12-29T09:31:06.354Z,17.97
2018-12-29T09:32:06.378Z,17.94
2018-12-29T09:33:06.853Z,18.10
2018-12-29T09:34:06.327Z,18.05
2018-12-29T09:35:06.669Z,17.95
2018-12-29T09:36:06.312Z,18.04
2018-12-29T09:37:06.331Z,18.01
2018-12-29T09:38:06.356Z,18.08
2018-12-29T09:39:06.267Z,18.04
2018-12-29T09:40:06.508Z,18.03
2018-12-29T09:41:06.247Z,18.03
2018-12-29T09:42:06.276Z,18.05
2018-12-29T09:43:06.248Z,18.07
2018-12-29T09:44:06.212Z,18.05
2018-12-29T09:45:06.208Z,18.05
2018-12-29T09:46:06.244Z,17.92
2018-12-29T09:47:06.226Z,18.01
2018-12-29T09:48:06.177Z,18.05
2018-12-29T09:49:06.167Z,18.01
2018-12-29T09:50:06.150Z,18.05
2018-12-29T09:51:06.143Z,18.04
2018-12-29T09:52:06.449Z,18.01
2018-12-29T09:53:06.127Z,18.08
2018-12-29T09:54:06.109Z,18.15
2018-12-29T09:55:06.093Z,18.05
2018-12-29T09:56:06.089Z,18.04
2018-12-29T09:57:06.106Z,18.05
2018-12-29T09:58:06.065Z,18.00
2018-12-29T09:59:06.052Z,18.11
2018-12-29T10:00:06.365Z,18.01
2018-12-29T10:01:06.029Z,18.04
2018-12-29T10:02:06.026Z,18.00
2018-12-29T10:03:06.262Z,18.10
2018-12-29T10:04:06.005Z,18.08
2018-12-29T10:05:06.002Z,18.03
2018-12-29T10:06:05.980Z,18.04
2018-12-29T10:07:05.967Z,18.15
2018-12-29T10:08:05.952Z,18.03
2018-12-29T10:09:05.943Z,18.16
2018-12-29T10:10:05.930Z,18.05
2018-12-29T10:11:05.944Z,18.20
2018-12-29T10:12:05.921Z,18.11
2018-12-29T10:13:06.192Z,18.08
2018-12-29T10:14:06.137Z,18.05
2018-12-29T10:15:05.876Z,18.18
2018-12-29T10:16:05.864Z,18.15
2018-12-29T10:17:05.894Z,18.13
2018-12-29T10:18:05.881Z,18.08
2018-12-29T10:19:06.142Z,18.07
2018-12-29T10:20:05.860Z,18.16
2018-12-29T10:21:06.094Z,18.15
2018-12-29T10:22:06.077Z,18.13
2018-12-29T10:23:05.824Z,18.11
2018-12-29T10:24:06.226Z,18.16
2018-12-29T10:25:06.908Z,18.19
2018-12-29T10:26:05.791Z,18.15
2018-12-29T10:27:05.782Z,18.18
2018-12-29T10:28:06.245Z,18.08
2018-12-29T10:29:05.725Z,18.13
2018-12-29T10:30:05.716Z,18.13
2018-12-29T10:31:05.707Z,18.18
2018-12-29T10:32:05.954Z,18.19
2018-12-29T10:33:05.934Z,18.18
2018-12-29T10:34:05.933Z,18.23
2018-12-29T10:35:05.913Z,18.18
2018-12-29T10:36:05.655Z,18.26
2018-12-29T10:37:05.643Z,18.22
2018-12-29T10:38:05.661Z,18.18
2018-12-29T10:39:05.869Z,18.22
2018-12-29T10:40:05.614Z,18.28
2018-12-29T10:41:05.593Z,18.22
2018-12-29T10:42:05.837Z,18.25
2018-12-29T10:43:05.860Z,18.20
2018-12-29T10:44:05.560Z,18.25
2018-12-29T10:45:05.817Z,18.35
2018-12-29T10:46:05.536Z,18.33
2018-12-29T10:47:05.776Z,18.23
2018-12-29T10:48:05.587Z,18.29
2018-12-29T10:49:05.769Z,18.34
2018-12-29T10:50:05.495Z,18.37
2018-12-29T10:51:05.484Z,18.28
2018-12-29T10:52:05.479Z,18.26
2018-12-29T10:53:05.756Z,18.34
2018-12-29T10:54:05.711Z,18.29
2018-12-29T10:55:05.450Z,18.31
2018-12-29T10:56:05.688Z,18.35
2018-12-29T10:57:05.413Z,18.28
2018-12-29T10:58:05.704Z,18.34
2018-12-29T10:59:05.403Z,18.31
2018-12-29T11:00:05.402Z,18.28
2018-12-29T11:01:05.389Z,18.34
2018-12-29T11:02:05.366Z,18.29
2018-12-29T11:03:05.458Z,18.31
2018-12-29T11:04:05.356Z,18.28
2018-12-29T11:05:05.339Z,18.29
2018-12-29T11:06:05.343Z,18.31
2018-12-29T11:07:05.321Z,18.28
2018-12-29T11:08:05.330Z,18.25
2018-12-29T11:09:05.298Z,18.31
2018-12-29T11:10:05.285Z,18.29
2018-12-29T11:11:05.523Z,18.33
2018-12-29T11:12:05.272Z,18.28
2018-12-29T11:13:05.275Z,18.34
2018-12-29T11:14:05.491Z,18.40
2018-12-29T11:15:05.251Z,18.33
2018-12-29T11:16:05.217Z,18.31
2018-12-29T11:17:05.487Z,18.31
2018-12-29T11:18:05.297Z,18.33
2018-12-29T11:19:05.222Z,18.29
2018-12-29T11:20:05.206Z,18.34
2018-12-29T11:21:05.198Z,18.31
2018-12-29T11:22:05.188Z,18.37
2018-12-29T11:23:05.173Z,18.35
2018-12-29T11:24:05.166Z,18.34
2018-12-29T11:25:05.164Z,18.31
2018-12-29T11:26:05.141Z,18.31
2018-12-29T11:27:05.150Z,18.29
2018-12-29T11:28:05.102Z,18.34
2018-12-29T11:29:05.091Z,18.29
2018-12-29T11:30:05.317Z,18.31
2018-12-29T11:31:05.057Z,18.31
2018-12-29T11:32:05.045Z,18.29
2018-12-29T11:33:05.061Z,18.34
2018-12-29T11:34:05.271Z,18.31
2018-12-29T11:35:05.013Z,18.35
2018-12-29T11:36:05.002Z,18.34
2018-12-29T11:37:05.000Z,18.35
2018-12-29T11:38:05.042Z,18.34
2018-12-29T11:39:05.042Z,18.34
2018-12-29T11:40:05.207Z,18.33
2018-12-29T11:41:04.951Z,18.38
2018-12-29T11:42:04.988Z,18.38
2018-12-29T11:43:04.926Z,18.41
2018-12-29T11:44:04.951Z,18.43
2018-12-29T11:45:04.903Z,18.38
2018-12-29T11:46:05.144Z,18.44
2018-12-29T11:47:04.893Z,18.37
2018-12-29T11:48:04.881Z,18.29
2018-12-29T11:49:04.903Z,18.38
2018-12-29T11:50:04.850Z,18.37
2018-12-29T11:51:04.921Z,18.31
2018-12-29T11:52:04.840Z,18.44
2018-12-29T11:53:05.069Z,18.38
2018-12-29T11:54:04.832Z,18.41
2018-12-29T11:55:04.794Z,18.43
2018-12-29T11:56:04.804Z,18.38
2018-12-29T11:57:04.770Z,18.35
2018-12-29T11:58:05.063Z,18.41
2018-12-29T11:59:04.784Z,18.38
2018-12-29T12:00:04.739Z,18.37
2018-12-29T12:01:04.723Z,18.38
2018-12-29T12:02:04.735Z,18.34
2018-12-29T12:03:04.717Z,18.38
2018-12-29T12:04:04.983Z,18.28
2018-12-29T12:05:04.688Z,18.35
2018-12-29T12:06:04.691Z,18.37
2018-12-29T12:07:04.660Z,18.38
2018-12-29T12:08:04.662Z,18.38
2018-12-29T12:09:04.680Z,18.40
2018-12-29T12:10:04.636Z,18.40
2018-12-29T12:11:04.624Z,18.40
2018-12-29T12:12:04.614Z,18.43
2018-12-29T12:13:04.605Z,18.38
2018-12-29T12:14:04.623Z,18.45
2018-12-29T12:15:04.842Z,18.37
2018-12-29T12:16:04.829Z,18.44
2018-12-29T12:17:04.588Z,18.44
2018-12-29T12:18:05.085Z,18.43
2018-12-29T12:19:04.628Z,18.41
2018-12-29T12:20:04.580Z,18.41
2018-12-29T12:21:04.792Z,18.38
2018-12-29T12:22:04.545Z,18.47
2018-12-29T12:23:04.526Z,18.44
2018-12-29T12:24:04.578Z,18.43
2018-12-29T12:25:04.507Z,18.38
2018-12-29T12:26:04.486Z,18.43
2018-12-29T12:27:04.491Z,18.43
2018-12-29T12:28:04.433Z,18.41
2018-12-29T12:29:04.457Z,18.49
2018-12-29T12:30:04.421Z,18.50
2018-12-29T12:31:04.398Z,18.43
2018-12-29T12:32:04.638Z,18.52
2018-12-29T12:33:04.381Z,18.43
2018-12-29T12:34:04.439Z,18.47
2018-12-29T12:35:04.371Z,18.41
2018-12-29T12:36:04.354Z,18.43
2018-12-29T12:37:04.461Z,18.44
2018-12-29T12:38:04.576Z,18.50
2018-12-29T12:39:04.382Z,18.49
2018-12-29T12:40:04.306Z,18.49
2018-12-29T12:41:04.810Z,18.52
2018-12-29T12:42:04.362Z,18.50
2018-12-29T12:43:04.524Z,18.50
2018-12-29T12:44:04.287Z,18.56
2018-12-29T12:45:04.265Z,18.50
2018-12-29T12:46:04.244Z,18.55
2018-12-29T12:47:04.472Z,18.41
2018-12-29T12:48:05.126Z,18.50
2018-12-29T12:49:04.251Z,18.53
2018-12-29T12:50:04.198Z,18.56
2018-12-29T12:51:04.182Z,18.50
2018-12-29T12:52:04.185Z,18.58